createdAt,value
2023-01-25T00:02:03.715Z,14.47
2023-01-25T00:06:12.328Z,17.90
2023-01-25T00:10:21.273Z,16.80
2023-01-25T00:14:29.900Z,19.90
2023-01-25T00:18:38.462Z,17.80
2023-01-25T00:22:47.015Z,22.47
2023-01-25T00:26:55.606Z,18.30
2023-01-25T00:31:05.992Z,18.50
2023-01-25T00:35:14.549Z,18.07
2023-01-25T00:39:23.588Z,17.33
2023-01-25T00:43:33.413Z,16.17
2023-01-25T00:47:54.458Z,17.63
2023-01-25T00:52:03.124Z,17.50
2023-01-25T00:56:11.779Z,17.00
2023-01-25T01:00:20.507Z,15.30
2023-01-25T01:04:29.193Z,16.50
2023-01-25T01:08:40.379Z,15.60
2023-01-25T01:12:49.360Z,16.93
2023-01-25T01:17:17.343Z,17.20
2023-01-25T01:21:25.974Z,16.87
2023-01-25T01:25:34.599Z,15.23
2023-01-25T01:30:02.552Z,16.65
2023-01-25T01:34:14.595Z,15.40
2023-01-25T01:38:43.021Z,15.33
2023-01-25T01:42:59.388Z,17.10
2023-01-25T01:47:11.019Z,16.50
2023-01-25T01:51:37.597Z,15.10
2023-01-25T01:55:46.169Z,17.00
2023-01-25T02:00:00.532Z,15.90
2023-01-25T02:04:10.200Z,15.57
2023-01-25T02:08:19.332Z,17.50
2023-01-25T02:12:28.510Z,18.23
2023-01-25T02:16:37.136Z,15.50
2023-01-25T02:20:48.341Z,16.37
2023-01-25T02:25:06.125Z,14.00
2023-01-25T02:29:16.299Z,16.30
2023-01-25T02:33:27.215Z,15.03
2023-01-25T02:37:36.214Z,15.40
2023-01-25T02:41:47.991Z,16.00
2023-01-25T02:45:59.811Z,16.70
2023-01-25T02:50:09.611Z,13.47
2023-01-25T02:54:20.821Z,13.40
2023-01-25T02:58:29.598Z,12.43
2023-01-25T03:02:38.392Z,13.33
2023-01-25T03:06:47.171Z,15.00
2023-01-25T03:11:00.218Z,14.70
2023-01-25T03:15:10.129Z,13.70
2023-01-25T03:19:18.829Z,14.87
2023-01-25T03:23:27.411Z,14.87
2023-01-25T03:27:56.315Z,14.77
2023-01-25T03:32:05.380Z,16.60
2023-01-25T03:36:14.114Z,15.10
2023-01-25T03:40:22.713Z,13.93
2023-01-25T03:44:50.695Z,14.63
2023-01-25T03:49:11.309Z,14.77
2023-01-25T03:53:22.226Z,13.60
2023-01-25T03:57:30.795Z,17.10
2023-01-25T04:01:39.690Z,13.77
2023-01-25T04:05:48.437Z,14.83
2023-01-25T04:09:57.017Z,16.57
2023-01-25T04:14:42.479Z,15.50
2023-01-25T04:18:35.363Z,15.10
2023-01-25T04:22:49.935Z,16.30
2023-01-25T04:26:58.571Z,17.60
2023-01-25T04:31:08.050Z,15.40
2023-01-25T04:35:19.952Z,15.93
2023-01-25T04:39:28.641Z,15.90
2023-01-25T04:43:37.369Z,16.10
2023-01-25T04:47:58.780Z,15.50
2023-01-25T04:52:07.436Z,16.30
2023-01-25T04:56:16.057Z,16.67
2023-01-25T05:00:28.882Z,15.73
2023-01-25T05:04:37.509Z,17.17
2023-01-25T05:08:46.140Z,16.77
2023-01-25T05:12:54.716Z,21.50
2023-01-25T05:17:03.330Z,21.37
2023-01-25T05:21:13.667Z,19.90
2023-01-25T05:25:39.787Z,22.20
2023-01-25T05:30:08.301Z,20.70
2023-01-25T05:34:16.928Z,19.40
2023-01-25T05:38:25.864Z,17.27
2023-01-25T05:42:34.508Z,20.50
2023-01-25T05:46:43.359Z,17.00
2023-01-25T05:50:51.923Z,17.53
2023-01-25T05:55:00.488Z,16.00
2023-01-25T05:59:10.748Z,17.10
2023-01-25T06:03:19.380Z,17.07
2023-01-25T06:07:28.105Z,17.10
2023-01-25T06:11:36.632Z,16.37
2023-01-25T06:15:46.939Z,18.43
2023-01-25T06:19:55.526Z,17.67
2023-01-25T06:24:05.374Z,15.80
2023-01-25T06:28:14.013Z,14.70
2023-01-25T06:32:24.170Z,17.37
2023-01-25T06:36:33.118Z,16.53
2023-01-25T06:40:41.747Z,15.40
2023-01-25T06:44:50.370Z,14.83
2023-01-25T06:48:59.007Z,18.17
2023-01-25T06:53:19.801Z,17.70
2023-01-25T06:57:40.483Z,16.80
2023-01-25T07:01:50.147Z,12.60
2023-01-25T07:06:02.287Z,15.83
2023-01-25T07:10:31.865Z,17.30
2023-01-25T07:14:40.538Z,16.60
2023-01-25T07:18:49.638Z,16.30
2023-01-25T07:23:02.054Z,18.93
2023-01-25T07:27:29.667Z,17.17
2023-01-25T07:31:38.264Z,15.67
2023-01-25T07:35:46.797Z,16.90
2023-01-25T07:39:57.003Z,15.17
2023-01-25T07:44:05.728Z,15.80
2023-01-25T07:48:14.286Z,15.13
2023-01-25T07:52:22.844Z,16.63
2023-01-25T07:56:37.842Z,16.47
2023-01-25T08:00:46.482Z,16.70
2023-01-25T08:04:55.261Z,16.37
2023-01-25T08:09:07.013Z,17.37
2023-01-25T08:13:35.199Z,16.27
2023-01-25T08:17:43.832Z,14.00
2023-01-25T08:21:52.832Z,17.30
2023-01-25T08:26:05.926Z,14.00
2023-01-25T08:30:14.752Z,14.00
2023-01-25T08:34:23.382Z,17.63
2023-01-25T08:38:32.551Z,17.40
2023-01-25T08:43:00.456Z,18.57
2023-01-25T08:47:09.025Z,17.07
2023-01-25T08:51:18.479Z,15.43
2023-01-25T08:55:27.106Z,17.60
2023-01-25T08:59:35.736Z,15.67
2023-01-25T09:03:46.412Z,17.00
2023-01-25T09:07:55.044Z,17.40
2023-01-25T09:12:03.668Z,16.13
2023-01-25T09:16:31.616Z,16.83
2023-01-25T09:20:40.903Z,16.97
2023-01-25T09:24:52.313Z,17.37
2023-01-25T09:29:01.275Z,17.40
2023-01-25T09:33:09.857Z,15.90
2023-01-25T09:37:18.397Z,18.80
2023-01-25T09:41:44.809Z,15.33
2023-01-25T09:45:53.456Z,14.40
2023-01-25T09:50:14.267Z,19.30
2023-01-25T09:54:42.314Z,19.17
2023-01-25T09:58:50.982Z,16.53
2023-01-25T10:03:37.839Z,15.93
2023-01-25T10:08:04.354Z,17.30
2023-01-25T10:12:18.440Z,17.67
2023-01-25T10:16:31.959Z,18.50
2023-01-25T10:20:55.754Z,16.43
2023-01-25T10:25:23.935Z,17.93
2023-01-25T10:29:53.648Z,13.20
2023-01-25T10:34:04.962Z,14.10
2023-01-25T10:38:34.458Z,14.80
2023-01-25T10:42:48.717Z,20.37
2023-01-25T10:47:07.412Z,17.30
2023-01-25T10:51:35.470Z,23.87
2023-01-25T10:55:47.270Z,18.60
2023-01-25T10:59:56.438Z,17.77
2023-01-25T11:04:26.951Z,17.77
2023-01-25T11:08:54.939Z,16.70
2023-01-25T11:13:19.544Z,18.43
2023-01-25T11:17:32.717Z,20.13
2023-01-25T11:21:44.482Z,19.50
2023-01-25T11:26:13.996Z,17.70
2023-01-25T11:30:22.826Z,18.20
2023-01-25T11:34:51.636Z,18.87
2023-01-25T11:39:22.693Z,17.70
2023-01-25T11:43:38.377Z,17.70
2023-01-25T11:48:02.161Z,18.17
2023-01-25T11:52:29.121Z,15.80
2023-01-25T11:57:19.527Z,17.63
2023-01-25T12:02:01.947Z,18.97
2023-01-25T12:06:30.134Z,19.60
2023-01-25T12:10:44.926Z,20.17
2023-01-25T12:15:20.467Z,17.73
2023-01-25T12:19:39.030Z,19.23
2023-01-25T12:23:56.845Z,19.23
2023-01-25T12:28:14.819Z,17.17
2023-01-25T12:32:26.726Z,18.77
2023-01-25T12:36:47.367Z,22.80
2023-01-25T12:41:03.135Z,16.70
2023-01-25T12:45:24.505Z,19.43
2023-01-25T12:49:44.968Z,18.43
2023-01-25T12:53:54.517Z,19.00
2023-01-25T12:58:14.953Z,18.80
2023-01-25T13:02:44.952Z,18.17
2023-01-25T13:07:02.607Z,17.53
2023-01-25T13:11:14.273Z,18.40
2023-01-25T13:15:46.372Z,18.37
2023-01-25T13:19:55.343Z,16.97
2023-01-25T13:24:22.400Z,18.53
2023-01-25T13:28:46.702Z,20.13
2023-01-25T13:32:58.531Z,18.10
2023-01-25T13:37:30.956Z,17.77
2023-01-25T13:41:42.654Z,17.13
2023-01-25T13:45:53.628Z,18.77
2023-01-25T13:50:05.345Z,18.87
2023-01-25T13:54:16.220Z,21.87
2023-01-25T13:58:30.807Z,18.80
2023-01-25T14:02:42.494Z,17.57
2023-01-25T14:06:52.652Z,18.47
2023-01-25T14:11:01.384Z,19.40
2023-01-25T14:15:25.184Z,18.37
2023-01-25T14:19:35.441Z,25.43
2023-01-25T14:23:44.273Z,20.60
2023-01-25T14:27:58.219Z,21.83
2023-01-25T14:32:07.164Z,19.90
2023-01-25T14:36:24.866Z,19.07
2023-01-25T14:40:28.036Z,21.40
2023-01-25T14:44:36.939Z,19.93
2023-01-25T14:48:45.566Z,18.30
2023-01-25T14:52:54.140Z,18.93
2023-01-25T14:57:05.842Z,20.00
2023-01-25T15:01:17.539Z,17.52
2023-01-25T15:05:31.458Z,18.93
2023-01-25T15:09:45.389Z,19.07
2023-01-25T15:14:02.131Z,18.83
2023-01-25T15:18:13.715Z,18.80
2023-01-25T15:22:23.167Z,18.60
2023-01-25T15:26:33.966Z,18.70
2023-01-25T15:30:42.648Z,18.43
2023-01-25T15:34:52.059Z,16.03
2023-01-25T15:39:00.966Z,16.57
2023-01-25T15:43:28.916Z,18.93
2023-01-25T15:47:58.599Z,19.90
2023-01-25T15:52:07.189Z,18.70
2023-01-25T15:56:27.879Z,17.93
2023-01-25T16:00:36.628Z,18.53
2023-01-25T16:04:45.182Z,25.63
2023-01-25T16:08:53.927Z,20.73
2023-01-25T16:13:02.564Z,22.97
2023-01-25T16:17:19.881Z,19.37
2023-01-25T16:21:28.521Z,19.87
2023-01-25T16:25:37.097Z,21.73
2023-01-25T16:29:45.738Z,19.70
2023-01-25T16:33:54.362Z,19.00
2023-01-25T16:38:02.990Z,21.40
2023-01-25T16:42:11.724Z,20.37
2023-01-25T16:46:23.261Z,17.20
2023-01-25T16:50:31.951Z,18.30
2023-01-25T16:54:40.427Z,21.73
2023-01-25T16:58:50.238Z,25.27
2023-01-25T17:02:59.987Z,19.83
2023-01-25T17:07:10.512Z,20.83
2023-01-25T17:11:19.913Z,19.87
2023-01-25T17:15:28.675Z,21.50
2023-01-25T17:19:37.282Z,24.37
2023-01-25T17:23:46.041Z,23.17
2023-01-25T17:28:14.079Z,22.00
2023-01-25T17:32:23.936Z,20.30
2023-01-25T17:36:32.661Z,27.47
2023-01-25T17:40:41.510Z,23.30
2023-01-25T17:44:50.027Z,22.53
2023-01-25T17:49:19.453Z,24.93
2023-01-25T17:53:28.074Z,25.13
2023-01-25T17:57:56.361Z,28.10
2023-01-25T18:02:06.389Z,21.33
2023-01-25T18:06:17.375Z,22.50
2023-01-25T18:10:25.930Z,25.97
2023-01-25T18:14:35.035Z,26.53
2023-01-25T18:18:44.928Z,26.20
2023-01-25T18:22:55.024Z,25.10
2023-01-25T18:27:18.470Z,21.47
2023-01-25T18:31:27.515Z,22.57
2023-01-25T18:35:36.249Z,24.13
2023-01-25T18:39:46.390Z,24.77
2023-01-25T18:43:56.622Z,24.80
2023-01-25T18:48:06.768Z,21.03
2023-01-25T18:52:16.633Z,22.07
2023-01-25T18:56:27.078Z,19.97
2023-01-25T19:00:36.411Z,23.47
2023-01-25T19:04:45.689Z,21.37
2023-01-25T19:09:13.738Z,24.73
2023-01-25T19:13:22.290Z,25.00
2023-01-25T19:17:32.225Z,25.13
2023-01-25T19:21:41.261Z,24.00
2023-01-25T19:25:54.747Z,25.67
2023-01-25T19:30:03.310Z,25.70
2023-01-25T19:34:11.964Z,27.30
2023-01-25T19:38:20.587Z,23.53
2023-01-25T19:42:29.115Z,26.07
2023-01-25T19:46:38.293Z,26.97
2023-01-25T19:50:46.883Z,25.43
2023-01-25T19:54:55.455Z,22.50
2023-01-25T19:59:05.950Z,29.27
2023-01-25T20:03:16.615Z,20.20
2023-01-25T20:07:26.425Z,22.73
2023-01-25T20:11:35.352Z,23.00
2023-01-25T20:15:48.488Z,24.70
2023-01-25T20:19:57.216Z,21.80
2023-01-25T20:24:06.843Z,23.03
2023-01-25T20:28:15.396Z,21.53
2023-01-25T20:32:32.738Z,26.53
2023-01-25T20:36:35.419Z,22.00
2023-01-25T20:40:44.049Z,24.37
2023-01-25T20:44:52.679Z,23.23
2023-01-25T20:49:02.186Z,22.50
2023-01-25T20:53:10.752Z,20.83
2023-01-25T20:57:19.293Z,22.23
2023-01-25T21:01:50.411Z,23.80
2023-01-25T21:06:00.821Z,22.93
2023-01-25T21:10:10.698Z,23.70
2023-01-25T21:14:20.315Z,23.20
2023-01-25T21:18:38.016Z,17.67
2023-01-25T21:23:06.144Z,17.00
2023-01-25T21:27:14.702Z,17.90
2023-01-25T21:31:26.306Z,20.17
2023-01-25T21:35:35.017Z,19.80
2023-01-25T21:39:43.626Z,20.40
2023-01-25T21:44:12.465Z,20.67
2023-01-25T21:48:22.629Z,22.73
2023-01-25T21:52:31.221Z,21.13
2023-01-25T21:56:39.848Z,22.93
2023-01-25T22:00:48.478Z,22.30
2023-01-25T22:04:57.115Z,26.10
2023-01-25T22:09:05.777Z,23.53
2023-01-25T22:13:14.466Z,23.47
2023-01-25T22:17:24.733Z,22.47
2023-01-25T22:21:33.875Z,23.33
2023-01-25T22:25:42.502Z,21.77
2023-01-25T22:29:51.130Z,22.87
2023-01-25T22:34:00.691Z,21.30
2023-01-25T22:38:28.665Z,19.83
2023-01-25T22:42:37.309Z,25.50
2023-01-25T22:47:05.275Z,22.30
2023-01-25T22:51:16.632Z,23.60
2023-01-25T22:55:25.300Z,19.70
2023-01-25T22:59:53.287Z,22.20
2023-01-25T23:04:02.729Z,25.93
2023-01-25T23:08:11.297Z,21.10
2023-01-25T23:12:39.353Z,21.50
2023-01-25T23:16:48.670Z,25.30
2023-01-25T23:20:57.313Z,22.87
2023-01-25T23:25:06.677Z,21.80
2023-01-25T23:29:15.527Z,20.53
2023-01-25T23:33:43.882Z,20.00
2023-01-25T23:37:52.511Z,20.83
2023-01-25T23:42:01.077Z,23.27
2023-01-25T23:46:10.016Z,25.23
2023-01-25T23:50:18.824Z,19.30
2023-01-25T23:54:27.463Z,24.97
2023-01-25T23:58:37.953Z,22.07
